Aeroporto :
LOGIN :

Iscrizione | Disclaimer

   EN    FR    IT 

 










Sommario :    VFR   VFR Marginale   IFR   IFR Intensivo   IFR Molto Intensivo
Visibilità : 
Base nubi : 
>= 8 km
>= 3000ft
5 / 8 km
1000 / 3000 ft
1500m / 5 km
500 / 1000 ft
800 / 1500m
200 / 500 ft
< 800m
< 200 ft
Simboli :   Temporali  Nebbia  Neve Forte  Precipitazioni Forti  Vento > 20 kt
SIGMETs :   Varie  Temporali  Ghiacco  Turbolenza  Onda orograficha  Ceneri Vulcaniche







- Altitudine del aeroporto : 614 ft
- Codice IATA : CRL


EBCI - Charleroi

ULTIMO METAR :
  • 211950Z 12007KT CAVOK 21/09 Q1012 NOSIG

METARs OBSOLETI :
  • 211920Z 11006KT CAVOK 21/10 Q1013 NOSIG
  • 211850Z 12008KT CAVOK 22/11 Q1013 NOSIG
  • 211820Z 12007KT CAVOK 22/11 Q1012 NOSIG
  • 211750Z 12006KT CAVOK 23/11 Q1012 NOSIG
  • 211720Z 12007KT 100V170 CAVOK 24/11 Q1012 NOSIG

TAF TAF EBCI
Valido dal 21 a 18 ore il 23 a 00 ore UTC


211710Z 2118/2224 14008KT CAVOK
TEMPO 2215/2218 25015G25KT 3000 SHRA
Nessun NOTAM noto per questo aeroporto.



MetMap, La meteo Aeronautica in un colpo d'occhio ! - Copyright ORBIFLY Dicembre 2007 - Disclaimer

ORBIFLY MET'MAP TEAM :

Programmazione e sviluppo : Alexandra Zaïnal
Concezione e sviluppo : Baudouin d'Aumeries
Co-Programmazione e sviluppo : Marc-Olivier Méhu
Supporto tecnico e logistico : Manuel Goepfert
Aiuto per la traduzione : Arnaldo La Scala

Contatto : metmap@orbifly.com




FONTI E CREDITI :

   NOAA